createdAt,value
2023-11-01T00:01:54.202Z,12.75
2023-11-01T00:04:17.431Z,12.78
2023-11-01T00:06:40.526Z,12.83
2023-11-01T00:09:03.560Z,12.83
2023-11-01T00:11:26.944Z,12.84
2023-11-01T00:13:50.149Z,12.87
2023-11-01T00:16:14.725Z,12.89
2023-11-01T00:18:37.971Z,12.87
2023-11-01T00:21:01.280Z,12.87
2023-11-01T00:23:24.392Z,12.90
2023-11-01T00:25:47.518Z,12.93
2023-11-01T00:28:10.613Z,12.92
2023-11-01T00:30:33.994Z,12.92
2023-11-01T00:32:58.665Z,12.92
2023-11-01T00:35:02.672Z,12.91
2023-11-01T00:37:07.799Z,12.86
2023-11-01T00:39:11.563Z,12.83
2023-11-01T00:41:16.939Z,12.78
2023-11-01T00:43:19.779Z,12.77
2023-11-01T00:45:29.010Z,12.72
2023-11-01T00:47:44.699Z,12.69
2023-11-01T00:49:49.743Z,12.68
2023-11-01T00:52:00.264Z,12.67
2023-11-01T00:54:09.486Z,12.70
2023-11-01T00:56:13.602Z,12.68
2023-11-01T00:58:30.124Z,12.68
2023-11-01T01:00:34.668Z,12.69
2023-11-01T01:02:44.255Z,12.72
2023-11-01T01:04:52.651Z,12.75
2023-11-01T01:06:59.392Z,12.76
2023-11-01T01:09:08.906Z,12.76
2023-11-01T01:11:21.903Z,12.76
2023-11-01T01:13:30.972Z,12.75
2023-11-01T01:15:47.186Z,12.79
2023-11-01T01:18:09.152Z,12.81
2023-11-01T01:20:18.609Z,12.83
2023-11-01T01:22:25.445Z,12.86
2023-11-01T01:24:34.713Z,12.87
2023-11-01T01:26:39.600Z,12.88
2023-11-01T01:28:47.621Z,12.89
2023-11-01T01:30:58.522Z,12.91
2023-11-01T01:33:10.380Z,12.90
2023-11-01T01:35:17.962Z,12.92
2023-11-01T01:37:24.438Z,12.92
2023-11-01T01:39:30.250Z,12.95
2023-11-01T01:41:53.330Z,12.97
2023-11-01T01:44:16.649Z,12.95
2023-11-01T01:46:39.962Z,12.97
2023-11-01T01:49:03.259Z,12.98
2023-11-01T01:51:14.421Z,13.00
2023-11-01T01:53:26.930Z,12.98
2023-11-01T01:55:31.887Z,12.99
2023-11-01T01:57:41.138Z,12.98
2023-11-01T02:00:05.308Z,12.98
2023-11-01T02:02:35.791Z,12.97
2023-11-01T02:04:58.954Z,12.94
2023-11-01T02:07:23.422Z,12.93
2023-11-01T02:09:27.726Z,12.90
2023-11-01T02:11:37.512Z,12.90
2023-11-01T02:14:00.733Z,12.90
2023-11-01T02:16:24.152Z,12.89
2023-11-01T02:18:26.749Z,12.90
2023-11-01T02:20:30.459Z,12.89
2023-11-01T02:22:35.250Z,12.90
2023-11-01T02:24:39.860Z,12.88
2023-11-01T02:26:43.035Z,12.87
2023-11-01T02:28:46.509Z,12.86
2023-11-01T02:30:49.671Z,12.86
2023-11-01T02:32:53.564Z,12.89
2023-11-01T02:34:55.679Z,12.91
2023-11-01T02:36:58.977Z,12.92
2023-11-01T02:39:01.128Z,12.91
2023-11-01T02:41:06.110Z,12.91
2023-11-01T02:43:09.484Z,12.90
2023-11-01T02:45:13.060Z,12.89
2023-11-01T02:47:16.556Z,12.87
2023-11-01T02:49:19.774Z,12.87
2023-11-01T02:51:23.485Z,12.86
2023-11-01T02:53:26.966Z,12.86
2023-11-01T02:55:30.929Z,12.86
2023-11-01T02:57:36.207Z,12.86
2023-11-01T02:59:39.335Z,12.85
2023-11-01T03:01:43.508Z,12.86
2023-11-01T03:03:46.992Z,12.86
2023-11-01T03:05:50.588Z,12.83
2023-11-01T03:07:54.952Z,12.83
2023-11-01T03:09:57.112Z,12.82
2023-11-01T03:12:00.334Z,12.81
2023-11-01T03:14:04.821Z,12.78
2023-11-01T03:16:07.843Z,12.78
2023-11-01T03:18:10.988Z,12.76
2023-11-01T03:20:14.214Z,12.75
2023-11-01T03:22:19.625Z,12.76
2023-11-01T03:24:23.062Z,12.76
2023-11-01T03:26:26.363Z,12.76
2023-11-01T03:28:29.617Z,12.75
2023-11-01T03:30:34.521Z,12.74
2023-11-01T03:32:37.865Z,12.75
2023-11-01T03:34:41.121Z,12.75
2023-11-01T03:36:44.705Z,12.74
2023-11-01T03:38:48.017Z,12.75
2023-11-01T03:40:51.550Z,12.75
2023-11-01T03:42:54.778Z,12.74
2023-11-01T03:44:57.989Z,12.73
2023-11-01T03:47:02.636Z,12.72
2023-11-01T03:49:06.354Z,12.73
2023-11-01T03:51:09.649Z,12.73
2023-11-01T03:53:14.399Z,12.73
2023-11-01T03:55:17.799Z,12.72
2023-11-01T03:57:20.893Z,12.72
2023-11-01T03:59:23.145Z,12.71
2023-11-01T04:01:26.330Z,12.69
2023-11-01T04:03:31.042Z,12.66
2023-11-01T04:05:34.272Z,12.62
2023-11-01T04:07:36.495Z,12.60
2023-11-01T04:09:39.627Z,12.59
2023-11-01T04:11:43.211Z,12.58
2023-11-01T04:13:46.794Z,12.56
2023-11-01T04:15:49.191Z,12.55
2023-11-01T04:17:53.382Z,12.54
2023-11-01T04:20:00.166Z,12.51
2023-11-01T04:22:03.550Z,12.47
2023-11-01T04:24:11.059Z,12.43
2023-11-01T04:26:14.565Z,12.40
2023-11-01T04:28:17.987Z,12.36
2023-11-01T04:30:21.129Z,12.32
2023-11-01T04:32:23.301Z,12.31
2023-11-01T04:34:26.900Z,12.28
2023-11-01T04:36:31.556Z,12.27
2023-11-01T04:38:35.009Z,12.26
2023-11-01T04:40:38.865Z,12.26
2023-11-01T04:42:42.925Z,12.25
2023-11-01T04:44:47.510Z,12.25
2023-11-01T04:46:51.158Z,12.23
2023-11-01T04:48:54.431Z,12.21
2023-11-01T04:51:02.183Z,12.19
2023-11-01T04:53:11.790Z,12.14
2023-11-01T04:55:15.768Z,12.13
2023-11-01T04:57:21.106Z,12.12
2023-11-01T04:59:43.241Z,12.10
2023-11-01T05:01:49.114Z,12.09
2023-11-01T05:03:57.783Z,12.08
2023-11-01T05:06:02.432Z,12.05
2023-11-01T05:08:26.956Z,12.02
2023-11-01T05:10:50.100Z,12.00
2023-11-01T05:13:13.186Z,11.96
2023-11-01T05:15:37.949Z,11.91
2023-11-01T05:17:41.519Z,11.87
2023-11-01T05:19:44.961Z,11.82
2023-11-01T05:21:47.490Z,11.82
2023-11-01T05:23:52.195Z,11.82
2023-11-01T05:25:55.934Z,11.82
2023-11-01T05:27:59.419Z,11.82
2023-11-01T05:30:02.721Z,11.80
2023-11-01T05:32:06.631Z,11.79
2023-11-01T05:34:14.729Z,11.75
2023-11-01T05:36:18.124Z,11.69
2023-11-01T05:38:22.471Z,11.63
2023-11-01T05:40:28.580Z,11.57
2023-11-01T05:42:33.792Z,11.51
2023-11-01T05:44:39.281Z,11.46
2023-11-01T05:46:43.654Z,11.41
2023-11-01T05:48:48.396Z,11.38
2023-11-01T05:50:52.060Z,11.35
2023-11-01T05:53:15.268Z,11.32
2023-11-01T05:55:25.858Z,11.26
2023-11-01T05:57:38.873Z,11.20
2023-11-01T05:59:55.806Z,11.15
2023-11-01T06:02:01.022Z,11.13
2023-11-01T06:04:06.425Z,11.11
2023-11-01T06:06:29.699Z,11.06
2023-11-01T06:08:53.045Z,11.03
2023-11-01T06:11:16.146Z,10.99
2023-11-01T06:13:22.754Z,10.94
2023-11-01T06:15:38.423Z,10.93
2023-11-01T06:18:01.684Z,10.90
2023-11-01T06:20:08.550Z,10.87
2023-11-01T06:22:17.802Z,10.85
2023-11-01T06:24:40.950Z,10.81
2023-11-01T06:26:46.096Z,10.75
2023-11-01T06:28:53.135Z,10.72
2023-11-01T06:30:58.820Z,10.72
2023-11-01T06:33:04.083Z,10.78
2023-11-01T06:35:09.433Z,10.90
2023-11-01T06:37:15.246Z,11.05
2023-11-01T06:39:39.115Z,11.17
2023-11-01T06:42:03.166Z,11.31
2023-11-01T06:44:27.766Z,11.44
2023-11-01T06:46:50.922Z,11.51
2023-11-01T06:49:00.822Z,11.57
2023-11-01T06:51:23.919Z,11.67
2023-11-01T06:53:32.494Z,11.77
2023-11-01T06:55:55.940Z,11.82
2023-11-01T06:58:19.235Z,11.81
2023-11-01T07:00:35.025Z,11.76
2023-11-01T07:02:44.464Z,11.74
2023-11-01T07:05:08.161Z,11.74
2023-11-01T07:07:19.320Z,11.75
2023-11-01T07:09:43.787Z,11.82
2023-11-01T07:12:06.761Z,11.84
2023-11-01T07:14:16.267Z,11.79
2023-11-01T07:16:42.802Z,11.72
2023-11-01T07:19:06.210Z,11.68
2023-11-01T07:21:29.331Z,11.70
2023-11-01T07:23:52.538Z,11.75
2023-11-01T07:25:59.536Z,11.73
2023-11-01T07:28:10.798Z,11.66
2023-11-01T07:30:33.955Z,11.64
2023-11-01T07:32:58.499Z,11.65
2023-11-01T07:35:05.677Z,11.61
2023-11-01T07:37:29.028Z,11.57
2023-11-01T07:39:37.035Z,11.54
2023-11-01T07:42:00.458Z,11.54
2023-11-01T07:44:06.196Z,11.58
2023-11-01T07:46:29.721Z,11.66
2023-11-01T07:48:36.397Z,11.77
2023-11-01T07:50:59.709Z,11.89
2023-11-01T07:53:04.080Z,11.90
2023-11-01T07:55:07.628Z,11.98
2023-11-01T07:57:10.958Z,11.99
2023-11-01T07:59:14.729Z,12.07
2023-11-01T08:01:18.396Z,12.10
2023-11-01T08:03:22.112Z,12.20
2023-11-01T08:05:26.971Z,12.27
2023-11-01T08:07:29.378Z,12.29
2023-11-01T08:09:32.689Z,12.36
2023-11-01T08:11:36.098Z,12.57
2023-11-01T08:13:39.372Z,12.74
2023-11-01T08:15:42.733Z,12.90
2023-11-01T08:17:45.895Z,13.05
2023-11-01T08:19:49.391Z,13.16
2023-11-01T08:21:54.174Z,13.29
2023-11-01T08:23:57.372Z,13.41
2023-11-01T08:25:59.844Z,13.48
2023-11-01T08:28:03.100Z,13.39
2023-11-01T08:30:07.623Z,13.46
2023-11-01T08:32:10.125Z,13.67
2023-11-01T08:34:13.357Z,13.79
2023-11-01T08:36:16.731Z,13.86
2023-11-01T08:38:21.331Z,13.91
2023-11-01T08:40:25.046Z,14.02
2023-11-01T08:42:30.119Z,14.14
2023-11-01T08:44:33.325Z,14.27
2023-11-01T08:46:36.635Z,14.44
2023-11-01T08:48:39.997Z,14.62
2023-11-01T08:50:43.301Z,14.79
2023-11-01T08:52:47.056Z,14.90
2023-11-01T08:54:51.727Z,15.00
2023-11-01T08:56:56.333Z,15.11
2023-11-01T08:58:59.574Z,15.23
2023-11-01T09:01:02.814Z,15.31
2023-11-01T09:03:06.106Z,15.24
2023-11-01T09:05:10.189Z,15.23
2023-11-01T09:07:12.435Z,15.36
2023-11-01T09:09:15.750Z,15.46
2023-11-01T09:11:24.377Z,15.57
2023-11-01T09:13:27.814Z,15.70
2023-11-01T09:15:31.035Z,15.78
2023-11-01T09:17:34.372Z,15.77
2023-11-01T09:19:37.559Z,15.72
2023-11-01T09:21:40.844Z,15.80
2023-11-01T09:23:43.956Z,15.93
2023-11-01T09:25:47.239Z,16.02
2023-11-01T09:27:51.735Z,16.03
2023-11-01T09:29:55.017Z,16.13
2023-11-01T09:31:57.248Z,16.14
2023-11-01T09:34:00.533Z,16.21
2023-11-01T09:36:03.751Z,16.27
2023-11-01T09:38:07.008Z,16.30
2023-11-01T09:40:12.731Z,16.23
2023-11-01T09:42:21.298Z,16.31
2023-11-01T09:44:25.759Z,16.42
2023-11-01T09:46:29.113Z,16.51
2023-11-01T09:48:32.604Z,16.57
2023-11-01T09:50:38.234Z,16.59
2023-11-01T09:52:41.865Z,16.55
2023-11-01T09:54:45.071Z,16.50
2023-11-01T09:56:48.652Z,16.46
2023-11-01T09:58:51.836Z,16.52
2023-11-01T10:00:59.181Z,16.46
2023-11-01T10:03:02.449Z,16.50
2023-11-01T10:05:06.273Z,16.50
2023-11-01T10:07:10.473Z,16.55
2023-11-01T10:09:13.000Z,16.72
2023-11-01T10:11:19.108Z,16.83
2023-11-01T10:13:22.260Z,16.92
2023-11-01T10:15:25.380Z,17.01
2023-11-01T10:17:30.141Z,17.13
2023-11-01T10:19:33.369Z,17.20
2023-11-01T10:21:35.662Z,17.18
2023-11-01T10:23:39.057Z,17.21
2023-11-01T10:25:46.247Z,17.30
2023-11-01T10:27:48.530Z,17.39
2023-11-01T10:29:51.874Z,17.41
2023-11-01T10:31:55.526Z,17.37
2023-11-01T10:34:00.678Z,17.37
2023-11-01T10:36:05.269Z,17.44
2023-11-01T10:38:09.139Z,17.47
2023-11-01T10:40:12.990Z,17.46
2023-11-01T10:42:19.074Z,17.43
2023-11-01T10:44:23.923Z,17.42
2023-11-01T10:46:27.261Z,17.45
2023-11-01T10:48:31.243Z,17.46
2023-11-01T10:50:36.156Z,17.48
2023-11-01T10:52:39.136Z,17.46
2023-11-01T10:54:45.460Z,17.45
2023-11-01T10:56:49.457Z,17.43
2023-11-01T10:58:54.670Z,17.37
2023-11-01T11:01:03.631Z,17.37
2023-11-01T11:03:12.624Z,17.37
2023-11-01T11:05:17.110Z,17.35
2023-11-01T11:07:28.584Z,17.34
2023-11-01T11:09:31.951Z,17.36
2023-11-01T11:11:35.203Z,17.39
2023-11-01T11:13:37.333Z,17.42
2023-11-01T11:16:01.764Z,17.47
2023-11-01T11:18:09.087Z,17.53
2023-11-01T11:20:13.042Z,17.54
2023-11-01T11:22:15.215Z,17.57
2023-11-01T11:24:58.151Z,17.59
2023-11-01T11:27:01.356Z,17.62
2023-11-01T11:29:06.181Z,17.65
2023-11-01T11:31:10.077Z,17.66
2023-11-01T11:33:13.712Z,17.69
2023-11-01T11:35:20.681Z,17.73
2023-11-01T11:37:30.353Z,17.77
2023-11-01T11:40:08.451Z,17.77
2023-11-01T11:42:51.057Z,17.78
2023-11-01T11:45:02.929Z,17.79
2023-11-01T11:47:30.692Z,17.82
2023-11-01T11:49:38.682Z,17.82
2023-11-01T11:51:51.292Z,17.86
2023-11-01T11:53:55.035Z,17.89
2023-11-01T11:55:59.746Z,17.82
2023-11-01T11:58:03.651Z,17.79
2023-11-01T12:00:09.131Z,17.81
2023-11-01T12:02:13.681Z,17.84
2023-11-01T12:04:17.815Z,17.81
2023-11-01T12:06:22.041Z,17.78
2023-11-01T12:08:39.268Z,17.74
2023-11-01T12:10:51.542Z,17.63
2023-11-01T12:12:57.698Z,17.61
2023-11-01T12:15:01.634Z,17.56
2023-11-01T12:17:06.438Z,17.53
2023-11-01T12:19:14.721Z,17.49
2023-11-01T12:21:17.881Z,17.48
2023-11-01T12:23:20.968Z,17.41
2023-11-01T12:25:25.577Z,17.39
2023-11-01T12:27:32.062Z,17.38
2023-11-01T12:29:38.577Z,17.41
2023-11-01T12:31:42.917Z,17.43
2023-11-01T12:33:46.162Z,17.44
2023-11-01T12:35:49.437Z,17.44
2023-11-01T12:37:52.536Z,17.47
2023-11-01T12:40:01.541Z,17.60
2023-11-01T12:42:26.755Z,17.75
2023-11-01T12:44:30.056Z,17.89
2023-11-01T12:46:37.317Z,17.98
2023-11-01T12:48:43.253Z,18.05
2023-11-01T12:50:46.451Z,18.12
2023-11-01T12:52:50.160Z,18.15
2023-11-01T12:54:52.419Z,18.17
2023-11-01T12:56:55.517Z,18.17
2023-11-01T12:58:58.652Z,18.13
2023-11-01T13:01:02.286Z,18.10
2023-11-01T13:03:07.057Z,18.06
2023-11-01T13:05:11.941Z,18.02
2023-11-01T13:07:15.077Z,17.98
2023-11-01T13:09:17.341Z,17.92
2023-11-01T13:11:21.317Z,17.89
2023-11-01T13:13:24.836Z,17.82
2023-11-01T13:15:28.477Z,17.78
2023-11-01T13:17:31.809Z,17.76
2023-11-01T13:19:37.037Z,17.73
2023-11-01T13:21:41.350Z,17.70
2023-11-01T13:23:45.593Z,17.64
2023-11-01T13:25:48.806Z,17.58
2023-11-01T13:27:52.013Z,17.53
2023-11-01T13:29:54.268Z,17.51
2023-11-01T13:31:57.480Z,17.52
2023-11-01T13:34:00.689Z,17.51
2023-11-01T13:36:05.898Z,17.53
2023-11-01T13:38:09.052Z,17.54
2023-11-01T13:40:12.802Z,17.53
2023-11-01T13:42:16.772Z,17.54
2023-11-01T13:44:20.648Z,17.56
2023-11-01T13:46:24.524Z,17.58
2023-11-01T13:48:27.665Z,17.57
2023-11-01T13:50:31.077Z,17.51
2023-11-01T13:52:36.915Z,17.49
2023-11-01T13:54:40.503Z,17.46
2023-11-01T13:56:43.699Z,17.45
2023-11-01T13:58:51.399Z,17.42
2023-11-01T14:00:54.683Z,17.38
2023-11-01T14:03:01.065Z,17.37
2023-11-01T14:05:04.589Z,17.37
2023-11-01T14:07:07.776Z,17.35
2023-11-01T14:09:13.360Z,17.34
2023-11-01T14:11:17.044Z,17.33
2023-11-01T14:13:19.460Z,17.34
2023-11-01T14:15:22.891Z,17.31
2023-11-01T14:17:26.626Z,17.32
2023-11-01T14:19:30.129Z,17.32
2023-11-01T14:21:33.322Z,17.34
2023-11-01T14:23:35.701Z,17.33
2023-11-01T14:25:40.293Z,17.33
2023-11-01T14:27:44.408Z,17.30
2023-11-01T14:29:47.694Z,17.27
2023-11-01T14:31:50.872Z,17.20
2023-11-01T14:33:54.137Z,17.15
2023-11-01T14:35:56.900Z,17.06
2023-11-01T14:38:00.539Z,17.03
2023-11-01T14:40:04.254Z,16.98
2023-11-01T14:42:10.053Z,16.91
2023-11-01T14:44:13.397Z,16.86
2023-11-01T14:46:16.797Z,16.81
2023-11-01T14:48:20.104Z,16.76
2023-11-01T14:50:22.234Z,16.72
2023-11-01T14:52:27.519Z,16.68
2023-11-01T14:54:31.368Z,16.65
2023-11-01T14:56:37.576Z,16.65
2023-11-01T14:58:42.211Z,16.64
2023-11-01T15:00:47.138Z,16.57
2023-11-01T15:02:50.459Z,16.51
2023-11-01T15:04:53.621Z,16.48
2023-11-01T15:06:56.847Z,16.45
2023-11-01T15:09:00.014Z,16.47
2023-11-01T15:11:04.406Z,16.44
2023-11-01T15:13:08.640Z,16.40
2023-11-01T15:15:13.427Z,16.33
2023-11-01T15:17:16.691Z,16.23
2023-11-01T15:19:19.956Z,16.15
2023-11-01T15:21:23.708Z,16.05
2023-11-01T15:23:26.921Z,16.03
2023-11-01T15:25:30.233Z,16.01
2023-11-01T15:27:33.362Z,15.96
2023-11-01T15:29:36.675Z,15.91
2023-11-01T15:31:41.208Z,15.89
2023-11-01T15:33:44.479Z,15.88
2023-11-01T15:35:47.809Z,15.87
2023-11-01T15:37:51.004Z,15.88
2023-11-01T15:39:53.612Z,15.85
2023-11-01T15:41:56.818Z,15.84
2023-11-01T15:44:00.041Z,15.84
2023-11-01T15:46:03.281Z,15.86
2023-11-01T15:48:08.745Z,15.84
2023-11-01T15:50:12.115Z,15.83
2023-11-01T15:52:14.365Z,15.84
2023-11-01T15:54:17.926Z,15.86
2023-11-01T15:56:20.136Z,15.88
2023-11-01T15:58:23.360Z,15.88
2023-11-01T16:00:26.686Z,15.88
2023-11-01T16:02:32.933Z,15.88
2023-11-01T16:04:37.724Z,15.91
2023-11-01T16:06:41.031Z,15.92
2023-11-01T16:08:43.392Z,15.88
2023-11-01T16:10:46.784Z,15.88
2023-11-01T16:12:50.105Z,15.87
2023-11-01T16:14:55.277Z,15.88
2023-11-01T16:16:59.283Z,15.83
2023-11-01T16:19:01.538Z,15.85
2023-11-01T16:21:07.212Z,15.78
2023-11-01T16:23:10.589Z,15.73
2023-11-01T16:25:14.298Z,15.70
2023-11-01T16:27:19.437Z,15.67
2023-11-01T16:29:22.614Z,15.64
2023-11-01T16:31:24.848Z,15.59
2023-11-01T16:33:28.201Z,15.53
2023-11-01T16:35:32.850Z,15.46
2023-11-01T16:37:37.538Z,15.41
2023-11-01T16:39:40.847Z,15.39
2023-11-01T16:41:50.070Z,15.38
2023-11-01T16:43:53.721Z,15.36
2023-11-01T16:45:57.299Z,15.36
2023-11-01T16:48:00.704Z,15.35
2023-11-01T16:50:03.902Z,15.32
2023-11-01T16:52:07.625Z,15.29
2023-11-01T16:54:12.531Z,15.26
2023-11-01T16:56:16.111Z,15.26
2023-11-01T16:58:19.342Z,15.24
2023-11-01T17:00:24.907Z,15.21
2023-11-01T17:02:31.492Z,15.20
2023-11-01T17:04:37.541Z,15.19
2023-11-01T17:06:40.986Z,15.17
2023-11-01T17:08:45.107Z,15.13
2023-11-01T17:10:52.645Z,15.11
2023-11-01T17:12:56.039Z,15.09
2023-11-01T17:14:59.859Z,15.09
2023-11-01T17:17:03.262Z,15.07
2023-11-01T17:19:08.104Z,15.03
2023-11-01T17:21:11.609Z,15.02
2023-11-01T17:23:16.296Z,15.03
2023-11-01T17:26:11.988Z,15.04
2023-11-01T17:28:21.904Z,15.03
2023-11-01T17:30:25.239Z,15.06
2023-11-01T17:32:28.737Z,15.06
2023-11-01T17:34:33.141Z,15.07
2023-11-01T17:36:36.730Z,15.06
2023-11-01T17:38:41.799Z,15.08
2023-11-01T17:40:44.373Z,15.07
2023-11-01T17:42:47.928Z,15.08
2023-11-01T17:44:53.611Z,15.09
2023-11-01T17:46:57.430Z,15.07
2023-11-01T17:49:02.814Z,15.08
2023-11-01T17:51:05.850Z,15.10
2023-11-01T17:53:09.133Z,15.11
2023-11-01T17:55:15.001Z,15.13
2023-11-01T17:57:18.666Z,15.14
2023-11-01T17:59:23.499Z,15.12
2023-11-01T18:01:28.750Z,15.13
2023-11-01T18:03:32.149Z,15.14
2023-11-01T18:05:37.663Z,15.15
2023-11-01T18:07:40.973Z,15.16
2023-11-01T18:09:47.054Z,15.15
2023-11-01T18:11:52.734Z,15.15
2023-11-01T18:13:56.141Z,15.15
2023-11-01T18:15:59.529Z,15.12
2023-11-01T18:18:04.276Z,15.13
2023-11-01T18:20:11.512Z,15.12
2023-11-01T18:22:40.238Z,15.10
2023-11-01T18:24:44.327Z,15.11
2023-11-01T18:26:47.698Z,15.12
2023-11-01T18:28:51.494Z,15.13
2023-11-01T18:30:54.710Z,15.12
2023-11-01T18:32:58.851Z,15.12
2023-11-01T18:35:04.217Z,15.09
2023-11-01T18:37:07.603Z,15.04
2023-11-01T18:39:11.266Z,14.99
2023-11-01T18:41:14.003Z,14.95
2023-11-01T18:43:17.351Z,14.97
2023-11-01T18:45:20.611Z,14.97
2023-11-01T18:47:25.839Z,14.96
2023-11-01T18:49:54.693Z,14.98
2023-11-01T18:52:01.099Z,14.97
2023-11-01T18:54:03.605Z,14.98
2023-11-01T18:56:07.274Z,14.99
2023-11-01T18:58:10.526Z,14.99
2023-11-01T19:00:21.498Z,15.00
2023-11-01T19:03:01.111Z,14.96
2023-11-01T19:05:07.955Z,14.89
2023-11-01T19:07:13.243Z,14.87
2023-11-01T19:09:17.503Z,14.84
2023-11-01T19:11:20.709Z,14.79
2023-11-01T19:13:25.740Z,14.78
2023-11-01T19:16:02.782Z,14.74
2023-11-01T19:18:06.215Z,14.73
2023-11-01T19:20:11.040Z,14.71
2023-11-01T19:22:15.632Z,14.66
2023-11-01T19:24:21.819Z,14.61
2023-11-01T19:26:25.888Z,14.57
2023-11-01T19:28:29.944Z,14.53
2023-11-01T19:30:33.108Z,14.59
2023-11-01T19:32:36.290Z,14.54
2023-11-01T19:34:40.057Z,14.55
2023-11-01T19:36:47.559Z,14.56
2023-11-01T19:38:52.048Z,14.53
2023-11-01T19:40:56.332Z,14.50
2023-11-01T19:43:02.964Z,14.42
2023-11-01T19:45:07.229Z,14.42
2023-11-01T19:47:10.439Z,14.45
2023-11-01T19:49:13.809Z,14.49
2023-11-01T19:51:17.279Z,14.50
2023-11-01T19:53:20.721Z,14.51
2023-11-01T19:55:24.411Z,14.48
2023-11-01T19:57:27.625Z,14.49
2023-11-01T19:59:34.256Z,14.45
2023-11-01T20:01:37.846Z,14.42
2023-11-01T20:03:41.147Z,14.44
2023-11-01T20:05:44.488Z,14.43
2023-11-01T20:07:47.824Z,14.42
2023-11-01T20:09:51.577Z,14.39
2023-11-01T20:11:56.239Z,14.31
2023-11-01T20:14:01.192Z,14.27
2023-11-01T20:16:06.027Z,14.29
2023-11-01T20:18:12.070Z,14.28
2023-11-01T20:20:14.549Z,14.19
2023-11-01T20:22:18.101Z,14.17
2023-11-01T20:24:21.637Z,14.13
2023-11-01T20:26:25.700Z,14.14
2023-11-01T20:28:30.654Z,14.17
2023-11-01T20:30:35.401Z,14.13
2023-11-01T20:32:38.785Z,14.06
2023-11-01T20:34:42.027Z,14.04
2023-11-01T20:36:47.683Z,14.00
2023-11-01T20:38:50.879Z,13.95
2023-11-01T20:40:54.083Z,13.92
2023-11-01T20:42:57.257Z,13.83
2023-11-01T20:45:01.953Z,13.82
2023-11-01T20:47:06.537Z,13.74
2023-11-01T20:49:11.227Z,13.64
2023-11-01T20:51:21.307Z,13.60
2023-11-01T20:53:24.537Z,13.60
2023-11-01T20:55:27.860Z,13.57
2023-11-01T20:57:32.742Z,13.54
2023-11-01T20:59:37.489Z,13.53
2023-11-01T21:01:42.061Z,13.54
2023-11-01T21:03:45.953Z,13.48
2023-11-01T21:05:50.144Z,13.45
2023-11-01T21:07:55.418Z,13.43
2023-11-01T21:09:59.506Z,13.39
2023-11-01T21:12:02.737Z,13.41
2023-11-01T21:14:05.998Z,13.41
2023-11-01T21:16:10.003Z,13.40
2023-11-01T21:18:14.676Z,13.34
2023-11-01T21:20:18.087Z,13.31
2023-11-01T21:22:21.270Z,13.32
2023-11-01T21:24:24.501Z,13.36
2023-11-01T21:26:27.795Z,13.36
2023-11-01T21:28:31.013Z,13.40
2023-11-01T21:30:34.221Z,13.45
2023-11-01T21:32:37.541Z,13.47
2023-11-01T21:34:42.363Z,13.49
2023-11-01T21:36:46.129Z,13.50
2023-11-01T21:38:57.033Z,13.48
2023-11-01T21:41:00.280Z,13.45
2023-11-01T21:43:02.457Z,13.41
2023-11-01T21:45:07.972Z,13.38
2023-11-01T21:47:13.217Z,13.32
2023-11-01T21:49:18.269Z,13.27
2023-11-01T21:51:22.133Z,13.27
2023-11-01T21:53:25.534Z,13.27
2023-11-01T21:55:49.845Z,13.25
2023-11-01T21:57:53.072Z,13.24
2023-11-01T21:59:59.704Z,13.22
2023-11-01T22:02:03.095Z,13.18
2023-11-01T22:04:21.204Z,13.15
2023-11-01T22:06:30.155Z,13.11
2023-11-01T22:08:55.923Z,13.10
2023-11-01T22:10:59.120Z,13.06
2023-11-01T22:13:02.742Z,13.04
2023-11-01T22:15:06.708Z,13.03
2023-11-01T22:17:11.716Z,13.00
2023-11-01T22:19:32.391Z,12.95
2023-11-01T22:21:38.505Z,12.90
2023-11-01T22:23:40.674Z,12.86
2023-11-01T22:25:43.752Z,12.82
2023-11-01T22:27:49.481Z,12.81
2023-11-01T22:29:53.430Z,12.77
2023-11-01T22:31:56.617Z,12.76
2023-11-01T22:33:59.846Z,12.74
2023-11-01T22:36:03.832Z,12.72
2023-11-01T22:38:08.661Z,12.66
2023-11-01T22:40:14.724Z,12.62
2023-11-01T22:42:19.783Z,12.60
2023-11-01T22:44:22.080Z,12.57
2023-11-01T22:46:25.163Z,12.55
2023-11-01T22:48:28.410Z,12.52
2023-11-01T22:50:31.668Z,12.50
2023-11-01T22:52:34.797Z,12.43
2023-11-01T22:54:39.820Z,12.35
2023-11-01T22:56:41.988Z,12.25
2023-11-01T22:58:45.193Z,12.20
2023-11-01T23:00:49.536Z,12.18
2023-11-01T23:02:51.814Z,12.18
2023-11-01T23:04:55.046Z,12.19
2023-11-01T23:06:58.177Z,12.16
2023-11-01T23:09:00.327Z,12.15
2023-11-01T23:11:05.612Z,12.11
2023-11-01T23:13:08.735Z,12.09
2023-11-01T23:15:12.151Z,12.03
2023-11-01T23:17:15.383Z,11.98
2023-11-01T23:19:19.578Z,11.95
2023-11-01T23:21:21.977Z,11.89
2023-11-01T23:23:25.655Z,11.87
2023-11-01T23:25:30.949Z,11.86
2023-11-01T23:27:36.424Z,11.84
2023-11-01T23:29:39.998Z,11.78
2023-11-01T23:31:43.148Z,11.71
2023-11-01T23:33:47.092Z,11.63
2023-11-01T23:35:50.841Z,11.59
2023-11-01T23:37:56.280Z,11.54
2023-11-01T23:39:59.478Z,11.48
2023-11-01T23:42:03.431Z,11.41
2023-11-01T23:44:08.597Z,11.35
2023-11-01T23:46:14.271Z,11.27
2023-11-01T23:48:18.222Z,11.21
2023-11-01T23:50:33.126Z,11.17
2023-11-01T23:52:37.294Z,11.12
2023-11-01T23:54:39.437Z,11.09
2023-11-01T23:56:43.871Z,11.07
2023-11-01T23:58:47.340Z,11.04
